sensor_id;sensor_type;location;lat;lon;timestamp;P1;durP1;ratioP1;P2;durP2;ratioP2
48026;SDS011;50714;49.208;5.364;2023-01-01T00:04:36;1.27;;;0.88;;
48026;SDS011;50714;49.208;5.364;2023-01-01T00:14:36;0.90;;;0.80;;
48026;SDS011;50714;49.208;5.364;2023-01-01T00:24:38;0.80;;;0.80;;
48026;SDS011;50714;49.208;5.364;2023-01-01T00:34:38;1.73;;;1.00;;
48026;SDS011;50714;49.208;5.364;2023-01-01T00:44:39;0.80;;;0.80;;
48026;SDS011;50714;49.208;5.364;2023-01-01T00:54:39;1.13;;;0.90;;
48026;SDS011;50714;49.208;5.364;2023-01-01T01:04:39;1.23;;;0.80;;
48026;SDS011;50714;49.208;5.364;2023-01-01T01:14:40;1.25;;;0.95;;
48026;SDS011;50714;49.208;5.364;2023-01-01T01:24:40;1.00;;;0.90;;
48026;SDS011;50714;49.208;5.364;2023-01-01T01:34:40;0.70;;;0.70;;
48026;SDS011;50714;49.208;5.364;2023-01-01T01:54:44;2.42;;;0.98;;
48026;SDS011;50714;49.208;5.364;2023-01-01T02:04:45;0.85;;;0.82;;
48026;SDS011;50714;49.208;5.364;2023-01-01T02:14:46;1.73;;;0.95;;
48026;SDS011;50714;49.208;5.364;2023-01-01T02:45:33;1.20;;;0.80;;
48026;SDS011;50714;49.208;5.364;2023-01-01T03:16:16;1.38;;;0.80;;
48026;SDS011;50714;49.208;5.364;2023-01-01T03:26:23;1.00;;;0.90;;
48026;SDS011;50714;49.208;5.364;2023-01-01T03:36:26;1.27;;;0.88;;
48026;SDS011;50714;49.208;5.364;2023-01-01T03:46:30;1.60;;;1.05;;
48026;SDS011;50714;49.208;5.364;2023-01-01T03:56:36;1.48;;;0.98;;
48026;SDS011;50714;49.208;5.364;2023-01-01T04:06:42;0.77;;;0.77;;
48026;SDS011;50714;49.208;5.364;2023-01-01T04:16:42;1.35;;;0.93;;
48026;SDS011;50714;49.208;5.364;2023-01-01T04:26:43;1.02;;;0.93;;
48026;SDS011;50714;49.208;5.364;2023-01-01T04:36:43;2.00;;;0.80;;
48026;SDS011;50714;49.208;5.364;2023-01-01T04:46:44;2.85;;;1.02;;
48026;SDS011;50714;49.208;5.364;2023-01-01T04:56:44;2.20;;;1.08;;
48026;SDS011;50714;49.208;5.364;2023-01-01T05:06:44;1.38;;;1.00;;
48026;SDS011;50714;49.208;5.364;2023-01-01T05:16:45;0.80;;;0.80;;
48026;SDS011;50714;49.208;5.364;2023-01-01T05:26:45;2.28;;;1.02;;
48026;SDS011;50714;49.208;5.364;2023-01-01T05:36:46;2.38;;;1.00;;
48026;SDS011;50714;49.208;5.364;2023-01-01T05:46:46;2.33;;;1.13;;
48026;SDS011;50714;49.208;5.364;2023-01-01T05:56:46;1.52;;;0.98;;
48026;SDS011;50714;49.208;5.364;2023-01-01T06:06:47;1.02;;;0.93;;
48026;SDS011;50714;49.208;5.364;2023-01-01T06:16:47;1.88;;;1.20;;
48026;SDS011;50714;49.208;5.364;2023-01-01T06:26:47;0.82;;;0.80;;
48026;SDS011;50714;49.208;5.364;2023-01-01T06:36:48;1.45;;;1.15;;
48026;SDS011;50714;49.208;5.364;2023-01-01T06:46:48;1.67;;;1.30;;
48026;SDS011;50714;49.208;5.364;2023-01-01T06:56:48;2.22;;;1.20;;
48026;SDS011;50714;49.208;5.364;2023-01-01T07:06:49;3.25;;;1.20;;
48026;SDS011;50714;49.208;5.364;2023-01-01T07:16:49;2.70;;;1.23;;
48026;SDS011;50714;49.208;5.364;2023-01-01T07:26:50;3.15;;;1.42;;
48026;SDS011;50714;49.208;5.364;2023-01-01T07:36:50;1.85;;;1.10;;
48026;SDS011;50714;49.208;5.364;2023-01-01T07:46:59;2.38;;;1.50;;
48026;SDS011;50714;49.208;5.364;2023-01-01T07:57:04;1.20;;;1.08;;
48026;SDS011;50714;49.208;5.364;2023-01-01T08:07:04;2.15;;;1.20;;
48026;SDS011;50714;49.208;5.364;2023-01-01T08:17:05;1.52;;;1.20;;
48026;SDS011;50714;49.208;5.364;2023-01-01T08:27:05;2.50;;;1.40;;
48026;SDS011;50714;49.208;5.364;2023-01-01T08:37:05;2.92;;;1.60;;
48026;SDS011;50714;49.208;5.364;2023-01-01T08:47:17;2.22;;;1.20;;
48026;SDS011;50714;49.208;5.364;2023-01-01T08:57:22;2.30;;;1.40;;
48026;SDS011;50714;49.208;5.364;2023-01-01T09:07:22;3.33;;;1.20;;
48026;SDS011;50714;49.208;5.364;2023-01-01T09:17:23;1.60;;;1.50;;
48026;SDS011;50714;49.208;5.364;2023-01-01T09:27:23;4.35;;;2.33;;
48026;SDS011;50714;49.208;5.364;2023-01-01T09:37:23;2.65;;;1.48;;
48026;SDS011;50714;49.208;5.364;2023-01-01T09:57:28;3.03;;;1.45;;
48026;SDS011;50714;49.208;5.364;2023-01-01T10:17:37;4.90;;;3.53;;
48026;SDS011;50714;49.208;5.364;2023-01-01T10:27:46;3.35;;;1.90;;
48026;SDS011;50714;49.208;5.364;2023-01-01T10:37:52;4.00;;;1.70;;
48026;SDS011;50714;49.208;5.364;2023-01-01T10:48:35;2.97;;;1.42;;
48026;SDS011;50714;49.208;5.364;2023-01-01T10:58:35;2.30;;;1.60;;
48026;SDS011;50714;49.208;5.364;2023-01-01T11:08:38;2.40;;;1.42;;
48026;SDS011;50714;49.208;5.364;2023-01-01T11:29:02;3.83;;;1.60;;
48026;SDS011;50714;49.208;5.364;2023-01-01T11:39:19;2.90;;;1.55;;
48026;SDS011;50714;49.208;5.364;2023-01-01T11:49:24;2.20;;;1.50;;
48026;SDS011;50714;49.208;5.364;2023-01-01T11:59:31;2.05;;;1.25;;
48026;SDS011;50714;49.208;5.364;2023-01-01T12:20:07;3.40;;;2.10;;
48026;SDS011;50714;49.208;5.364;2023-01-01T12:31:11;3.25;;;1.58;;
48026;SDS011;50714;49.208;5.364;2023-01-01T13:01:34;2.40;;;1.65;;
48026;SDS011;50714;49.208;5.364;2023-01-01T13:11:36;3.33;;;1.65;;
48026;SDS011;50714;49.208;5.364;2023-01-01T13:21:38;3.67;;;1.70;;
48026;SDS011;50714;49.208;5.364;2023-01-01T13:41:40;2.92;;;1.60;;
48026;SDS011;50714;49.208;5.364;2023-01-01T14:02:19;2.25;;;1.45;;
48026;SDS011;50714;49.208;5.364;2023-01-01T14:12:21;3.13;;;1.63;;
48026;SDS011;50714;49.208;5.364;2023-01-01T14:22:21;9.27;;;5.75;;
48026;SDS011;50714;49.208;5.364;2023-01-01T14:32:22;6.10;;;3.00;;
48026;SDS011;50714;49.208;5.364;2023-01-01T14:42:24;4.28;;;2.50;;
48026;SDS011;50714;49.208;5.364;2023-01-01T14:52:25;15.93;;;10.93;;
48026;SDS011;50714;49.208;5.364;2023-01-01T15:02:29;6.60;;;4.00;;
48026;SDS011;50714;49.208;5.364;2023-01-01T15:12:32;8.85;;;5.68;;
48026;SDS011;50714;49.208;5.364;2023-01-01T15:22:34;4.95;;;2.58;;
48026;SDS011;50714;49.208;5.364;2023-01-01T15:32:38;2.95;;;1.80;;
48026;SDS011;50714;49.208;5.364;2023-01-01T15:42:39;3.00;;;1.70;;
48026;SDS011;50714;49.208;5.364;2023-01-01T15:52:41;4.63;;;2.10;;
48026;SDS011;50714;49.208;5.364;2023-01-01T16:02:43;2.72;;;1.80;;
48026;SDS011;50714;49.208;5.364;2023-01-01T16:12:43;2.97;;;1.75;;
48026;SDS011;50714;49.208;5.364;2023-01-01T16:22:44;3.60;;;1.80;;
48026;SDS011;50714;49.208;5.364;2023-01-01T16:32:45;2.65;;;2.22;;
48026;SDS011;50714;49.208;5.364;2023-01-01T16:42:47;6.65;;;4.40;;
48026;SDS011;50714;49.208;5.364;2023-01-01T16:52:48;7.60;;;4.03;;
48026;SDS011;50714;49.208;5.364;2023-01-01T17:02:48;6.28;;;4.38;;
48026;SDS011;50714;49.208;5.364;2023-01-01T17:12:49;7.32;;;6.63;;
48026;SDS011;50714;49.208;5.364;2023-01-01T17:22:49;11.63;;;8.82;;
48026;SDS011;50714;49.208;5.364;2023-01-01T17:32:49;10.18;;;7.93;;
48026;SDS011;50714;49.208;5.364;2023-01-01T17:42:50;7.22;;;4.50;;
48026;SDS011;50714;49.208;5.364;2023-01-01T17:52:50;7.28;;;4.65;;
48026;SDS011;50714;49.208;5.364;2023-01-01T18:02:51;5.70;;;3.40;;
48026;SDS011;50714;49.208;5.364;2023-01-01T18:12:51;5.63;;;2.88;;
48026;SDS011;50714;49.208;5.364;2023-01-01T18:22:52;4.90;;;2.67;;
48026;SDS011;50714;49.208;5.364;2023-01-01T18:32:52;5.57;;;3.10;;
48026;SDS011;50714;49.208;5.364;2023-01-01T18:42:58;7.13;;;3.70;;
48026;SDS011;50714;49.208;5.364;2023-01-01T18:53:16;4.88;;;2.70;;
48026;SDS011;50714;49.208;5.364;2023-01-01T19:03:21;4.57;;;1.70;;
48026;SDS011;50714;49.208;5.364;2023-01-01T19:13:34;4.65;;;2.53;;
48026;SDS011;50714;49.208;5.364;2023-01-01T19:23:36;4.13;;;2.80;;
48026;SDS011;50714;49.208;5.364;2023-01-01T19:33:48;6.88;;;5.57;;
48026;SDS011;50714;49.208;5.364;2023-01-01T19:43:49;14.70;;;9.75;;
48026;SDS011;50714;49.208;5.364;2023-01-01T19:53:50;6.97;;;4.20;;
48026;SDS011;50714;49.208;5.364;2023-01-01T20:03:54;7.65;;;4.28;;
48026;SDS011;50714;49.208;5.364;2023-01-01T20:13:57;5.13;;;2.28;;
48026;SDS011;50714;49.208;5.364;2023-01-01T20:23:57;4.95;;;2.63;;
48026;SDS011;50714;49.208;5.364;2023-01-01T20:33:58;6.20;;;2.40;;
48026;SDS011;50714;49.208;5.364;2023-01-01T20:43:58;3.92;;;2.47;;
48026;SDS011;50714;49.208;5.364;2023-01-01T20:54:00;4.22;;;2.47;;
48026;SDS011;50714;49.208;5.364;2023-01-01T21:04:00;5.50;;;2.70;;
48026;SDS011;50714;49.208;5.364;2023-01-01T21:14:01;3.58;;;2.10;;
48026;SDS011;50714;49.208;5.364;2023-01-01T21:24:09;4.43;;;2.55;;
48026;SDS011;50714;49.208;5.364;2023-01-01T21:44:39;4.22;;;2.10;;
48026;SDS011;50714;49.208;5.364;2023-01-01T21:54:39;4.28;;;2.22;;
48026;SDS011;50714;49.208;5.364;2023-01-01T22:04:40;2.85;;;1.73;;
48026;SDS011;50714;49.208;5.364;2023-01-01T22:14:48;3.33;;;1.83;;
48026;SDS011;50714;49.208;5.364;2023-01-01T22:35:29;3.35;;;2.20;;
48026;SDS011;50714;49.208;5.364;2023-01-01T22:45:31;3.80;;;2.05;;
48026;SDS011;50714;49.208;5.364;2023-01-01T22:55:32;3.87;;;2.07;;
48026;SDS011;50714;49.208;5.364;2023-01-01T23:05:32;3.97;;;1.80;;
48026;SDS011;50714;49.208;5.364;2023-01-01T23:15:33;4.10;;;1.83;;
48026;SDS011;50714;49.208;5.364;2023-01-01T23:25:52;3.83;;;1.85;;
48026;SDS011;50714;49.208;5.364;2023-01-01T23:35:52;3.73;;;1.77;;
48026;SDS011;50714;49.208;5.364;2023-01-01T23:45:53;4.13;;;1.90;;
48026;SDS011;50714;49.208;5.364;2023-01-01T23:55:53;4.57;;;1.63;;
